sensor_id;sensor_type;location;lat;lon;timestamp;temperature;humidity
15359;DHT22;7779;49.596;11.070;2024-01-15T00:02:07;-1.10;64.90
15359;DHT22;7779;49.596;11.070;2024-01-15T00:04:39;-1.10;64.90
15359;DHT22;7779;49.596;11.070;2024-01-15T00:07:06;-1.10;64.90
15359;DHT22;7779;49.596;11.070;2024-01-15T00:09:33;-1.10;64.90
15359;DHT22;7779;49.596;11.070;2024-01-15T00:11:59;-1.10;64.90
15359;DHT22;7779;49.596;11.070;2024-01-15T00:14:26;-1.10;64.80
15359;DHT22;7779;49.596;11.070;2024-01-15T00:16:52;-1.10;64.90
15359;DHT22;7779;49.596;11.070;2024-01-15T00:19:20;-1.20;64.80
15359;DHT22;7779;49.596;11.070;2024-01-15T00:21:47;-1.10;65.00
15359;DHT22;7779;49.596;11.070;2024-01-15T00:24:13;-1.10;64.90
15359;DHT22;7779;49.596;11.070;2024-01-15T00:26:39;-1.10;64.90
15359;DHT22;7779;49.596;11.070;2024-01-15T00:29:07;-1.20;64.80
15359;DHT22;7779;49.596;11.070;2024-01-15T00:31:33;-1.20;64.90
15359;DHT22;7779;49.596;11.070;2024-01-15T00:33:59;-1.20;64.80
15359;DHT22;7779;49.596;11.070;2024-01-15T00:36:25;-1.10;65.40
15359;DHT22;7779;49.596;11.070;2024-01-15T00:38:51;-1.20;64.70
15359;DHT22;7779;49.596;11.070;2024-01-15T00:41:17;-1.20;64.70
15359;DHT22;7779;49.596;11.070;2024-01-15T00:43:44;-1.20;64.70
15359;DHT22;7779;49.596;11.070;2024-01-15T00:46:11;-1.20;64.70
15359;DHT22;7779;49.596;11.070;2024-01-15T00:48:37;-1.10;64.70
15359;DHT22;7779;49.596;11.070;2024-01-15T00:51:04;-1.20;64.70
15359;DHT22;7779;49.596;11.070;2024-01-15T00:53:30;-1.20;64.80
15359;DHT22;7779;49.596;11.070;2024-01-15T00:55:56;-1.20;64.80
15359;DHT22;7779;49.596;11.070;2024-01-15T00:58:22;-1.20;65.50
15359;DHT22;7779;49.596;11.070;2024-01-15T01:00:48;-1.20;64.90
15359;DHT22;7779;49.596;11.070;2024-01-15T01:03:14;-1.20;64.80
15359;DHT22;7779;49.596;11.070;2024-01-15T01:05:40;-1.20;64.90
15359;DHT22;7779;49.596;11.070;2024-01-15T01:08:05;-1.10;65.00
15359;DHT22;7779;49.596;11.070;2024-01-15T01:10:31;-1.10;65.00
15359;DHT22;7779;49.596;11.070;2024-01-15T01:12:57;-1.20;64.90
15359;DHT22;7779;49.596;11.070;2024-01-15T01:15:22;-1.10;65.00
15359;DHT22;7779;49.596;11.070;2024-01-15T01:17:49;-1.10;65.00
15359;DHT22;7779;49.596;11.070;2024-01-15T01:20:15;-1.10;64.90
15359;DHT22;7779;49.596;11.070;2024-01-15T01:22:41;-1.10;64.90
15359;DHT22;7779;49.596;11.070;2024-01-15T01:25:07;-1.10;64.90
15359;DHT22;7779;49.596;11.070;2024-01-15T01:27:35;-1.10;65.00
15359;DHT22;7779;49.596;11.070;2024-01-15T01:30:01;-1.10;65.00
15359;DHT22;7779;49.596;11.070;2024-01-15T01:32:27;-1.10;65.00
15359;DHT22;7779;49.596;11.070;2024-01-15T01:34:53;-1.00;65.10
15359;DHT22;7779;49.596;11.070;2024-01-15T01:37:19;-1.00;65.10
15359;DHT22;7779;49.596;11.070;2024-01-15T01:39:45;-1.00;65.10
15359;DHT22;7779;49.596;11.070;2024-01-15T01:42:11;-1.00;65.20
15359;DHT22;7779;49.596;11.070;2024-01-15T01:44:37;-1.00;65.20
15359;DHT22;7779;49.596;11.070;2024-01-15T01:47:04;-0.90;65.30
15359;DHT22;7779;49.596;11.070;2024-01-15T01:49:30;-0.90;65.30
15359;DHT22;7779;49.596;11.070;2024-01-15T01:51:57;-0.90;65.30
15359;DHT22;7779;49.596;11.070;2024-01-15T01:54:26;-0.90;65.20
15359;DHT22;7779;49.596;11.070;2024-01-15T01:56:54;-0.80;65.30
15359;DHT22;7779;49.596;11.070;2024-01-15T01:59:22;-0.80;65.30
15359;DHT22;7779;49.596;11.070;2024-01-15T02:01:49;-0.80;65.20
15359;DHT22;7779;49.596;11.070;2024-01-15T02:04:16;-0.80;65.30
15359;DHT22;7779;49.596;11.070;2024-01-15T02:06:42;-0.80;65.30
15359;DHT22;7779;49.596;11.070;2024-01-15T02:09:09;-0.80;65.30
15359;DHT22;7779;49.596;11.070;2024-01-15T02:11:36;-0.70;65.40
15359;DHT22;7779;49.596;11.070;2024-01-15T02:14:02;-0.80;65.40
15359;DHT22;7779;49.596;11.070;2024-01-15T02:16:28;-0.70;65.40
15359;DHT22;7779;49.596;11.070;2024-01-15T02:18:54;-0.70;65.40
15359;DHT22;7779;49.596;11.070;2024-01-15T02:21:19;-0.70;65.40
15359;DHT22;7779;49.596;11.070;2024-01-15T02:23:45;-0.70;65.50
15359;DHT22;7779;49.596;11.070;2024-01-15T02:26:11;-0.70;65.50
15359;DHT22;7779;49.596;11.070;2024-01-15T02:28:37;-0.60;65.60
15359;DHT22;7779;49.596;11.070;2024-01-15T02:31:03;-0.60;65.60
15359;DHT22;7779;49.596;11.070;2024-01-15T02:33:29;-0.60;65.60
15359;DHT22;7779;49.596;11.070;2024-01-15T02:35:54;-0.60;65.60
15359;DHT22;7779;49.596;11.070;2024-01-15T02:38:20;-0.60;65.60
15359;DHT22;7779;49.596;11.070;2024-01-15T02:40:46;-0.50;66.30
15359;DHT22;7779;49.596;11.070;2024-01-15T02:43:12;-0.50;65.60
15359;DHT22;7779;49.596;11.070;2024-01-15T02:45:39;-0.50;65.60
15359;DHT22;7779;49.596;11.070;2024-01-15T02:48:05;-0.60;65.60
15359;DHT22;7779;49.596;11.070;2024-01-15T02:50:31;-0.50;65.70
15359;DHT22;7779;49.596;11.070;2024-01-15T02:52:57;-0.50;65.30
15359;DHT22;7779;49.596;11.070;2024-01-15T02:55:22;-0.50;66.30
15359;DHT22;7779;49.596;11.070;2024-01-15T02:57:48;-0.50;65.70
15359;DHT22;7779;49.596;11.070;2024-01-15T03:00:14;-0.40;65.80
15359;DHT22;7779;49.596;11.070;2024-01-15T03:02:40;-0.50;65.80
15359;DHT22;7779;49.596;11.070;2024-01-15T03:05:12;-0.40;65.80
15359;DHT22;7779;49.596;11.070;2024-01-15T03:07:37;-0.40;65.40
15359;DHT22;7779;49.596;11.070;2024-01-15T03:10:05;-0.40;65.80
15359;DHT22;7779;49.596;11.070;2024-01-15T03:12:31;-0.40;65.80
15359;DHT22;7779;49.596;11.070;2024-01-15T03:14:57;-0.40;65.90
15359;DHT22;7779;49.596;11.070;2024-01-15T03:17:23;-0.30;66.00
15359;DHT22;7779;49.596;11.070;2024-01-15T03:19:49;-0.40;65.90
15359;DHT22;7779;49.596;11.070;2024-01-15T03:22:16;-0.30;66.00
15359;DHT22;7779;49.596;11.070;2024-01-15T03:24:42;-0.30;66.00
15359;DHT22;7779;49.596;11.070;2024-01-15T03:27:07;-0.30;66.00
15359;DHT22;7779;49.596;11.070;2024-01-15T03:29:33;-0.30;66.00
15359;DHT22;7779;49.596;11.070;2024-01-15T03:31:59;-0.30;66.00
15359;DHT22;7779;49.596;11.070;2024-01-15T03:34:24;-0.20;66.00
15359;DHT22;7779;49.596;11.070;2024-01-15T03:36:50;-0.20;66.00
15359;DHT22;7779;49.596;11.070;2024-01-15T03:39:16;-0.20;66.10
15359;DHT22;7779;49.596;11.070;2024-01-15T03:41:42;-0.20;66.10
15359;DHT22;7779;49.596;11.070;2024-01-15T03:44:07;-0.20;66.10
15359;DHT22;7779;49.596;11.070;2024-01-15T03:46:33;-0.20;66.10
15359;DHT22;7779;49.596;11.070;2024-01-15T03:48:59;-0.10;66.30
15359;DHT22;7779;49.596;11.070;2024-01-15T03:51:24;-0.20;66.20
15359;DHT22;7779;49.596;11.070;2024-01-15T03:53:50;-0.10;66.20
15359;DHT22;7779;49.596;11.070;2024-01-15T03:56:16;-0.10;66.30
15359;DHT22;7779;49.596;11.070;2024-01-15T03:58:42;0.00;66.40
15359;DHT22;7779;49.596;11.070;2024-01-15T04:01:09;0.00;66.40
15359;DHT22;7779;49.596;11.070;2024-01-15T04:03:35;0.00;66.40
15359;DHT22;7779;49.596;11.070;2024-01-15T04:06:02;0.00;66.40
15359;DHT22;7779;49.596;11.070;2024-01-15T04:08:28;0.00;66.50
15359;DHT22;7779;49.596;11.070;2024-01-15T04:10:54;0.00;66.50
15359;DHT22;7779;49.596;11.070;2024-01-15T04:13:20;0.00;66.40
15359;DHT22;7779;49.596;11.070;2024-01-15T04:15:46;0.10;66.50
15359;DHT22;7779;49.596;11.070;2024-01-15T04:18:12;0.10;66.40
15359;DHT22;7779;49.596;11.070;2024-01-15T04:20:37;0.10;66.40
15359;DHT22;7779;49.596;11.070;2024-01-15T04:23:04;0.10;66.50
15359;DHT22;7779;49.596;11.070;2024-01-15T04:25:30;0.10;66.50
15359;DHT22;7779;49.596;11.070;2024-01-15T04:27:56;0.10;66.50
15359;DHT22;7779;49.596;11.070;2024-01-15T04:30:22;0.10;66.40
15359;DHT22;7779;49.596;11.070;2024-01-15T04:32:48;0.20;66.50
15359;DHT22;7779;49.596;11.070;2024-01-15T04:35:13;0.20;66.50
15359;DHT22;7779;49.596;11.070;2024-01-15T04:37:42;0.20;66.50
15359;DHT22;7779;49.596;11.070;2024-01-15T04:40:08;0.20;66.50
15359;DHT22;7779;49.596;11.070;2024-01-15T04:42:35;0.20;66.40
15359;DHT22;7779;49.596;11.070;2024-01-15T04:45:00;0.20;66.40
15359;DHT22;7779;49.596;11.070;2024-01-15T04:47:26;0.30;66.50
15359;DHT22;7779;49.596;11.070;2024-01-15T04:49:52;0.30;65.90
15359;DHT22;7779;49.596;11.070;2024-01-15T04:52:17;0.30;66.40
15359;DHT22;7779;49.596;11.070;2024-01-15T04:54:43;0.30;66.40
15359;DHT22;7779;49.596;11.070;2024-01-15T04:57:09;0.30;66.40
15359;DHT22;7779;49.596;11.070;2024-01-15T04:59:34;0.30;66.40
15359;DHT22;7779;49.596;11.070;2024-01-15T05:02:00;0.40;66.50
15359;DHT22;7779;49.596;11.070;2024-01-15T05:04:26;0.40;66.50
15359;DHT22;7779;49.596;11.070;2024-01-15T05:06:51;0.40;66.50
15359;DHT22;7779;49.596;11.070;2024-01-15T05:09:18;0.40;66.40
15359;DHT22;7779;49.596;11.070;2024-01-15T05:11:44;0.50;66.50
15359;DHT22;7779;49.596;11.070;2024-01-15T05:14:09;0.40;66.40
15359;DHT22;7779;49.596;11.070;2024-01-15T05:16:38;0.50;66.50
15359;DHT22;7779;49.596;11.070;2024-01-15T05:19:04;0.50;66.50
15359;DHT22;7779;49.596;11.070;2024-01-15T05:21:30;0.50;66.50
15359;DHT22;7779;49.596;11.070;2024-01-15T05:23:55;0.50;66.50
15359;DHT22;7779;49.596;11.070;2024-01-15T05:26:21;0.50;66.40
15359;DHT22;7779;49.596;11.070;2024-01-15T05:28:47;0.50;66.40
15359;DHT22;7779;49.596;11.070;2024-01-15T05:31:13;0.50;66.50
15359;DHT22;7779;49.596;11.070;2024-01-15T05:33:39;0.50;66.40
15359;DHT22;7779;49.596;11.070;2024-01-15T05:36:05;0.60;66.40
15359;DHT22;7779;49.596;11.070;2024-01-15T05:38:31;0.60;66.50
15359;DHT22;7779;49.596;11.070;2024-01-15T05:40:57;0.60;66.40
15359;DHT22;7779;49.596;11.070;2024-01-15T05:43:23;0.60;66.40
15359;DHT22;7779;49.596;11.070;2024-01-15T05:45:48;0.60;66.30
15359;DHT22;7779;49.596;11.070;2024-01-15T05:48:14;0.60;66.30
15359;DHT22;7779;49.596;11.070;2024-01-15T05:50:41;0.60;66.30
15359;DHT22;7779;49.596;11.070;2024-01-15T05:53:06;0.60;66.30
15359;DHT22;7779;49.596;11.070;2024-01-15T05:55:32;0.60;66.20
15359;DHT22;7779;49.596;11.070;2024-01-15T05:57:58;0.70;66.40
15359;DHT22;7779;49.596;11.070;2024-01-15T06:00:23;0.60;66.30
15359;DHT22;7779;49.596;11.070;2024-01-15T06:02:49;0.60;66.30
15359;DHT22;7779;49.596;11.070;2024-01-15T06:05:15;0.60;66.30
15359;DHT22;7779;49.596;11.070;2024-01-15T06:07:41;0.70;66.40
15359;DHT22;7779;49.596;11.070;2024-01-15T06:10:07;0.60;66.30
15359;DHT22;7779;49.596;11.070;2024-01-15T06:12:33;0.70;66.30
15359;DHT22;7779;49.596;11.070;2024-01-15T06:14:59;0.70;66.40
15359;DHT22;7779;49.596;11.070;2024-01-15T06:17:25;0.60;66.40
15359;DHT22;7779;49.596;11.070;2024-01-15T06:19:50;0.60;66.40
15359;DHT22;7779;49.596;11.070;2024-01-15T06:22:16;0.60;66.50
15359;DHT22;7779;49.596;11.070;2024-01-15T06:24:43;0.60;66.50
15359;DHT22;7779;49.596;11.070;2024-01-15T06:27:08;0.60;66.60
15359;DHT22;7779;49.596;11.070;2024-01-15T06:29:37;0.60;66.50
15359;DHT22;7779;49.596;11.070;2024-01-15T06:32:04;0.60;66.60
15359;DHT22;7779;49.596;11.070;2024-01-15T06:34:30;0.60;66.50
15359;DHT22;7779;49.596;11.070;2024-01-15T06:36:55;0.60;66.70
15359;DHT22;7779;49.596;11.070;2024-01-15T06:39:21;0.60;66.70
15359;DHT22;7779;49.596;11.070;2024-01-15T06:41:47;0.50;66.60
15359;DHT22;7779;49.596;11.070;2024-01-15T06:44:12;0.60;66.70
15359;DHT22;7779;49.596;11.070;2024-01-15T06:46:44;0.50;66.80
15359;DHT22;7779;49.596;11.070;2024-01-15T06:49:11;0.60;67.00
15359;DHT22;7779;49.596;11.070;2024-01-15T06:51:37;0.50;66.90
15359;DHT22;7779;49.596;11.070;2024-01-15T06:54:03;0.50;66.90
15359;DHT22;7779;49.596;11.070;2024-01-15T06:56:30;0.50;66.90
15359;DHT22;7779;49.596;11.070;2024-01-15T06:58:56;0.50;66.80
15359;DHT22;7779;49.596;11.070;2024-01-15T07:01:22;0.60;67.00
15359;DHT22;7779;49.596;11.070;2024-01-15T07:03:48;0.60;66.90
15359;DHT22;7779;49.596;11.070;2024-01-15T07:06:14;0.60;67.00
15359;DHT22;7779;49.596;11.070;2024-01-15T07:08:40;0.60;67.20
15359;DHT22;7779;49.596;11.070;2024-01-15T07:11:07;0.60;67.10
15359;DHT22;7779;49.596;11.070;2024-01-15T07:13:33;0.60;67.10
15359;DHT22;7779;49.596;11.070;2024-01-15T07:15:59;0.60;67.10
15359;DHT22;7779;49.596;11.070;2024-01-15T07:18:25;0.60;67.10
15359;DHT22;7779;49.596;11.070;2024-01-15T07:20:51;0.60;67.10
15359;DHT22;7779;49.596;11.070;2024-01-15T07:23:17;0.60;67.10
15359;DHT22;7779;49.596;11.070;2024-01-15T07:25:43;0.60;67.20
15359;DHT22;7779;49.596;11.070;2024-01-15T07:28:09;0.60;67.30
15359;DHT22;7779;49.596;11.070;2024-01-15T07:30:35;0.60;67.20
15359;DHT22;7779;49.596;11.070;2024-01-15T07:33:01;0.60;67.30
15359;DHT22;7779;49.596;11.070;2024-01-15T07:35:26;0.60;67.40
15359;DHT22;7779;49.596;11.070;2024-01-15T07:37:52;0.60;67.50
15359;DHT22;7779;49.596;11.070;2024-01-15T07:40:18;0.60;67.50
15359;DHT22;7779;49.596;11.070;2024-01-15T07:42:44;0.60;67.50
15359;DHT22;7779;49.596;11.070;2024-01-15T07:45:10;0.60;67.60
15359;DHT22;7779;49.596;11.070;2024-01-15T07:47:36;0.60;67.60
15359;DHT22;7779;49.596;11.070;2024-01-15T07:50:02;0.60;67.60
15359;DHT22;7779;49.596;11.070;2024-01-15T07:52:30;0.60;67.60
15359;DHT22;7779;49.596;11.070;2024-01-15T07:54:56;0.60;67.60
15359;DHT22;7779;49.596;11.070;2024-01-15T07:57:22;0.60;67.60
15359;DHT22;7779;49.596;11.070;2024-01-15T07:59:48;0.70;67.80
15359;DHT22;7779;49.596;11.070;2024-01-15T08:02:15;0.70;67.80
15359;DHT22;7779;49.596;11.070;2024-01-15T08:04:41;0.70;67.80
15359;DHT22;7779;49.596;11.070;2024-01-15T08:07:06;0.70;67.80
15359;DHT22;7779;49.596;11.070;2024-01-15T08:09:33;0.70;67.70
15359;DHT22;7779;49.596;11.070;2024-01-15T08:11:59;0.70;67.60
15359;DHT22;7779;49.596;11.070;2024-01-15T08:14:25;0.70;67.60
15359;DHT22;7779;49.596;11.070;2024-01-15T08:16:51;0.80;67.70
15359;DHT22;7779;49.596;11.070;2024-01-15T08:19:17;0.80;67.50
15359;DHT22;7779;49.596;11.070;2024-01-15T08:21:42;0.80;67.50
15359;DHT22;7779;49.596;11.070;2024-01-15T08:24:08;0.80;67.70
15359;DHT22;7779;49.596;11.070;2024-01-15T08:26:34;0.80;67.80
15359;DHT22;7779;49.596;11.070;2024-01-15T08:29:00;0.80;68.00
15359;DHT22;7779;49.596;11.070;2024-01-15T08:31:26;0.90;68.00
15359;DHT22;7779;49.596;11.070;2024-01-15T08:33:52;0.80;68.00
15359;DHT22;7779;49.596;11.070;2024-01-15T08:36:18;0.90;68.10
15359;DHT22;7779;49.596;11.070;2024-01-15T08:38:44;0.90;68.30
15359;DHT22;7779;49.596;11.070;2024-01-15T08:41:10;0.90;68.30
15359;DHT22;7779;49.596;11.070;2024-01-15T08:43:36;1.00;68.40
15359;DHT22;7779;49.596;11.070;2024-01-15T08:46:02;1.00;68.30
15359;DHT22;7779;49.596;11.070;2024-01-15T08:48:28;1.00;68.50
15359;DHT22;7779;49.596;11.070;2024-01-15T08:50:54;1.10;68.40
15359;DHT22;7779;49.596;11.070;2024-01-15T08:53:20;1.10;68.40
15359;DHT22;7779;49.596;11.070;2024-01-15T08:55:46;1.20;68.50
15359;DHT22;7779;49.596;11.070;2024-01-15T08:58:13;1.20;68.40
15359;DHT22;7779;49.596;11.070;2024-01-15T09:00:39;1.20;68.30
15359;DHT22;7779;49.596;11.070;2024-01-15T09:03:05;1.30;68.40
15359;DHT22;7779;49.596;11.070;2024-01-15T09:05:31;1.30;68.30
15359;DHT22;7779;49.596;11.070;2024-01-15T09:07:57;1.30;68.20
15359;DHT22;7779;49.596;11.070;2024-01-15T09:10:23;1.30;68.10
15359;DHT22;7779;49.596;11.070;2024-01-15T09:12:49;1.40;68.10
15359;DHT22;7779;49.596;11.070;2024-01-15T09:15:15;1.40;68.20
15359;DHT22;7779;49.596;11.070;2024-01-15T09:17:41;1.40;68.30
15359;DHT22;7779;49.596;11.070;2024-01-15T09:20:07;1.50;68.40
15359;DHT22;7779;49.596;11.070;2024-01-15T09:22:34;1.50;68.40
15359;DHT22;7779;49.596;11.070;2024-01-15T09:25:00;1.50;68.50
15359;DHT22;7779;49.596;11.070;2024-01-15T09:27:26;1.60;68.60
15359;DHT22;7779;49.596;11.070;2024-01-15T09:29:52;1.60;68.70
15359;DHT22;7779;49.596;11.070;2024-01-15T09:32:18;1.70;68.90
15359;DHT22;7779;49.596;11.070;2024-01-15T09:34:45;1.70;68.60
15359;DHT22;7779;49.596;11.070;2024-01-15T09:37:12;1.80;68.60
15359;DHT22;7779;49.596;11.070;2024-01-15T09:39:39;1.80;68.50
15359;DHT22;7779;49.596;11.070;2024-01-15T09:42:05;1.80;68.40
15359;DHT22;7779;49.596;11.070;2024-01-15T09:44:32;1.90;68.20
15359;DHT22;7779;49.596;11.070;2024-01-15T09:46:58;1.90;68.10
15359;DHT22;7779;49.596;11.070;2024-01-15T09:49:24;1.90;68.10
15359;DHT22;7779;49.596;11.070;2024-01-15T09:51:50;1.90;68.10
15359;DHT22;7779;49.596;11.070;2024-01-15T09:54:16;1.90;68.20
15359;DHT22;7779;49.596;11.070;2024-01-15T09:56:46;1.90;68.10
15359;DHT22;7779;49.596;11.070;2024-01-15T09:59:16;2.00;68.40
15359;DHT22;7779;49.596;11.070;2024-01-15T10:01:44;2.00;68.40
15359;DHT22;7779;49.596;11.070;2024-01-15T10:04:11;2.00;68.30
15359;DHT22;7779;49.596;11.070;2024-01-15T10:06:43;2.00;68.10
15359;DHT22;7779;49.596;11.070;2024-01-15T10:09:13;2.00;68.00
15359;DHT22;7779;49.596;11.070;2024-01-15T10:11:43;2.00;67.90
15359;DHT22;7779;49.596;11.070;2024-01-15T10:14:10;2.00;68.00
15359;DHT22;7779;49.596;11.070;2024-01-15T10:16:40;2.00;68.10
15359;DHT22;7779;49.596;11.070;2024-01-15T10:19:07;2.10;68.20
15359;DHT22;7779;49.596;11.070;2024-01-15T10:21:34;2.10;68.20
15359;DHT22;7779;49.596;11.070;2024-01-15T10:24:00;2.10;68.00
15359;DHT22;7779;49.596;11.070;2024-01-15T10:26:28;2.10;67.80
15359;DHT22;7779;49.596;11.070;2024-01-15T10:28:54;2.10;67.90
15359;DHT22;7779;49.596;11.070;2024-01-15T10:31:20;2.10;68.60
15359;DHT22;7779;49.596;11.070;2024-01-15T10:33:48;2.10;68.10
15359;DHT22;7779;49.596;11.070;2024-01-15T10:36:16;2.10;68.10
15359;DHT22;7779;49.596;11.070;2024-01-15T10:38:46;2.10;68.00
15359;DHT22;7779;49.596;11.070;2024-01-15T10:41:12;2.10;68.10
15359;DHT22;7779;49.596;11.070;2024-01-15T10:43:38;2.10;68.10
15359;DHT22;7779;49.596;11.070;2024-01-15T10:46:06;2.10;68.10
15359;DHT22;7779;49.596;11.070;2024-01-15T10:48:33;2.20;68.10
15359;DHT22;7779;49.596;11.070;2024-01-15T10:51:01;2.20;68.10
15359;DHT22;7779;49.596;11.070;2024-01-15T10:53:37;2.20;68.00
15359;DHT22;7779;49.596;11.070;2024-01-15T10:56:06;2.20;68.00
15359;DHT22;7779;49.596;11.070;2024-01-15T10:58:33;2.20;67.50
15359;DHT22;7779;49.596;11.070;2024-01-15T11:01:01;2.20;67.80
15359;DHT22;7779;49.596;11.070;2024-01-15T11:03:28;2.20;67.80
15359;DHT22;7779;49.596;11.070;2024-01-15T11:05:54;2.20;67.80
15359;DHT22;7779;49.596;11.070;2024-01-15T11:08:20;2.20;67.40
15359;DHT22;7779;49.596;11.070;2024-01-15T11:10:48;2.20;67.70
15359;DHT22;7779;49.596;11.070;2024-01-15T11:13:40;2.20;67.70
15359;DHT22;7779;49.596;11.070;2024-01-15T11:16:09;2.20;67.80
15359;DHT22;7779;49.596;11.070;2024-01-15T11:18:39;2.20;67.80
15359;DHT22;7779;49.596;11.070;2024-01-15T11:23:58;2.30;68.20
15359;DHT22;7779;49.596;11.070;2024-01-15T11:26:44;2.30;68.20
15359;DHT22;7779;49.596;11.070;2024-01-15T11:29:31;2.40;68.30
15359;DHT22;7779;49.596;11.070;2024-01-15T11:32:03;2.40;68.30
15359;DHT22;7779;49.596;11.070;2024-01-15T11:34:57;2.40;68.10
15359;DHT22;7779;49.596;11.070;2024-01-15T11:37:28;2.50;68.20
15359;DHT22;7779;49.596;11.070;2024-01-15T11:40:21;2.50;68.00
15359;DHT22;7779;49.596;11.070;2024-01-15T11:42:48;2.50;67.80
15359;DHT22;7779;49.596;11.070;2024-01-15T11:45:21;2.50;67.70
15359;DHT22;7779;49.596;11.070;2024-01-15T11:48:06;2.50;67.60
15359;DHT22;7779;49.596;11.070;2024-01-15T11:50:49;2.50;67.60
15359;DHT22;7779;49.596;11.070;2024-01-15T11:55:51;2.50;67.60
15359;DHT22;7779;49.596;11.070;2024-01-15T11:58:18;2.50;67.60
15359;DHT22;7779;49.596;11.070;2024-01-15T12:00:45;2.50;67.60
15359;DHT22;7779;49.596;11.070;2024-01-15T12:03:14;2.50;67.70
15359;DHT22;7779;49.596;11.070;2024-01-15T12:05:40;2.50;67.80
15359;DHT22;7779;49.596;11.070;2024-01-15T12:08:07;2.50;67.90
15359;DHT22;7779;49.596;11.070;2024-01-15T12:10:40;2.50;67.90
15359;DHT22;7779;49.596;11.070;2024-01-15T12:13:11;2.50;68.00
15359;DHT22;7779;49.596;11.070;2024-01-15T12:15:38;2.50;68.00
15359;DHT22;7779;49.596;11.070;2024-01-15T12:18:09;2.50;68.00
15359;DHT22;7779;49.596;11.070;2024-01-15T12:20:35;2.60;68.60
15359;DHT22;7779;49.596;11.070;2024-01-15T12:23:02;2.60;67.90
15359;DHT22;7779;49.596;11.070;2024-01-15T12:25:30;2.60;67.70
15359;DHT22;7779;49.596;11.070;2024-01-15T12:27:56;2.60;67.60
15359;DHT22;7779;49.596;11.070;2024-01-15T12:30:22;2.60;67.60
15359;DHT22;7779;49.596;11.070;2024-01-15T12:32:48;2.60;67.60
15359;DHT22;7779;49.596;11.070;2024-01-15T12:35:14;2.50;67.60
15359;DHT22;7779;49.596;11.070;2024-01-15T12:37:41;2.50;67.70
15359;DHT22;7779;49.596;11.070;2024-01-15T12:40:10;2.60;67.80
15359;DHT22;7779;49.596;11.070;2024-01-15T12:42:41;2.50;67.70
15359;DHT22;7779;49.596;11.070;2024-01-15T12:45:09;2.60;67.70
15359;DHT22;7779;49.596;11.070;2024-01-15T12:47:36;2.60;67.70
15359;DHT22;7779;49.596;11.070;2024-01-15T12:50:05;2.60;67.60
15359;DHT22;7779;49.596;11.070;2024-01-15T12:52:32;2.60;67.60
15359;DHT22;7779;49.596;11.070;2024-01-15T12:54:58;2.60;67.60
15359;DHT22;7779;49.596;11.070;2024-01-15T12:57:24;2.60;67.70
15359;DHT22;7779;49.596;11.070;2024-01-15T12:59:49;2.60;67.10
15359;DHT22;7779;49.596;11.070;2024-01-15T13:02:16;2.60;67.70
15359;DHT22;7779;49.596;11.070;2024-01-15T13:04:42;2.60;67.70
15359;DHT22;7779;49.596;11.070;2024-01-15T13:07:08;2.70;67.80
15359;DHT22;7779;49.596;11.070;2024-01-15T13:09:34;2.70;67.20
15359;DHT22;7779;49.596;11.070;2024-01-15T13:12:04;2.70;67.80
15359;DHT22;7779;49.596;11.070;2024-01-15T13:14:31;2.70;68.30
15359;DHT22;7779;49.596;11.070;2024-01-15T13:16:58;2.70;67.60
15359;DHT22;7779;49.596;11.070;2024-01-15T13:19:24;2.70;67.60
15359;DHT22;7779;49.596;11.070;2024-01-15T13:21:50;2.70;67.60
15359;DHT22;7779;49.596;11.070;2024-01-15T13:24:17;2.70;67.50
15359;DHT22;7779;49.596;11.070;2024-01-15T13:26:43;2.70;67.40
15359;DHT22;7779;49.596;11.070;2024-01-15T13:29:09;2.70;67.40
15359;DHT22;7779;49.596;11.070;2024-01-15T13:31:35;2.70;67.30
15359;DHT22;7779;49.596;11.070;2024-01-15T13:34:00;2.70;67.30
15359;DHT22;7779;49.596;11.070;2024-01-15T13:36:26;2.70;67.20
15359;DHT22;7779;49.596;11.070;2024-01-15T13:38:53;2.60;67.20
15359;DHT22;7779;49.596;11.070;2024-01-15T13:41:22;2.60;67.20
15359;DHT22;7779;49.596;11.070;2024-01-15T13:43:53;2.60;67.30
15359;DHT22;7779;49.596;11.070;2024-01-15T13:46:24;2.60;67.40
15359;DHT22;7779;49.596;11.070;2024-01-15T13:48:52;2.50;67.30
15359;DHT22;7779;49.596;11.070;2024-01-15T13:51:19;2.50;67.50
15359;DHT22;7779;49.596;11.070;2024-01-15T13:53:47;2.50;67.50
15359;DHT22;7779;49.596;11.070;2024-01-15T13:56:13;2.50;67.60
15359;DHT22;7779;49.596;11.070;2024-01-15T13:58:38;2.50;67.60
15359;DHT22;7779;49.596;11.070;2024-01-15T14:01:04;2.40;67.60
15359;DHT22;7779;49.596;11.070;2024-01-15T14:03:31;2.40;67.70
15359;DHT22;7779;49.596;11.070;2024-01-15T14:05:58;2.40;67.90
15359;DHT22;7779;49.596;11.070;2024-01-15T14:08:23;2.40;68.00
15359;DHT22;7779;49.596;11.070;2024-01-15T14:10:49;2.40;68.00
15359;DHT22;7779;49.596;11.070;2024-01-15T14:13:15;2.40;68.10
15359;DHT22;7779;49.596;11.070;2024-01-15T14:15:41;2.40;68.10
15359;DHT22;7779;49.596;11.070;2024-01-15T14:18:06;2.40;68.10
15359;DHT22;7779;49.596;11.070;2024-01-15T14:20:33;2.40;68.20
15359;DHT22;7779;49.596;11.070;2024-01-15T14:22:58;2.40;68.30
15359;DHT22;7779;49.596;11.070;2024-01-15T14:25:24;2.40;68.30
15359;DHT22;7779;49.596;11.070;2024-01-15T14:27:50;2.40;68.30
15359;DHT22;7779;49.596;11.070;2024-01-15T14:30:16;2.40;68.30
15359;DHT22;7779;49.596;11.070;2024-01-15T14:32:42;2.40;68.30
15359;DHT22;7779;49.596;11.070;2024-01-15T14:35:09;2.40;68.20
15359;DHT22;7779;49.596;11.070;2024-01-15T14:37:38;2.40;68.20
15359;DHT22;7779;49.596;11.070;2024-01-15T14:40:05;2.40;68.20
15359;DHT22;7779;49.596;11.070;2024-01-15T14:42:33;2.50;68.30
15359;DHT22;7779;49.596;11.070;2024-01-15T14:44:59;2.40;68.10
15359;DHT22;7779;49.596;11.070;2024-01-15T14:47:26;2.40;68.00
15359;DHT22;7779;49.596;11.070;2024-01-15T14:49:53;2.40;67.90
15359;DHT22;7779;49.596;11.070;2024-01-15T14:52:18;2.40;67.90
15359;DHT22;7779;49.596;11.070;2024-01-15T14:54:45;2.40;67.90
15359;DHT22;7779;49.596;11.070;2024-01-15T14:57:13;2.40;68.00
15359;DHT22;7779;49.596;11.070;2024-01-15T14:59:39;2.40;68.00
15359;DHT22;7779;49.596;11.070;2024-01-15T15:02:06;2.40;68.00
15359;DHT22;7779;49.596;11.070;2024-01-15T15:04:32;2.40;68.00
15359;DHT22;7779;49.596;11.070;2024-01-15T15:06:58;2.40;68.00
15359;DHT22;7779;49.596;11.070;2024-01-15T15:09:23;2.40;68.00
15359;DHT22;7779;49.596;11.070;2024-01-15T15:11:49;2.30;67.80
15359;DHT22;7779;49.596;11.070;2024-01-15T15:14:16;2.30;67.80
15359;DHT22;7779;49.596;11.070;2024-01-15T15:16:42;2.30;67.70
15359;DHT22;7779;49.596;11.070;2024-01-15T15:19:08;2.30;67.70
15359;DHT22;7779;49.596;11.070;2024-01-15T15:21:33;2.30;67.80
15359;DHT22;7779;49.596;11.070;2024-01-15T15:23:59;2.20;67.60
15359;DHT22;7779;49.596;11.070;2024-01-15T15:26:25;2.20;67.60
15359;DHT22;7779;49.596;11.070;2024-01-15T15:28:51;2.20;67.70
15359;DHT22;7779;49.596;11.070;2024-01-15T15:31:17;2.20;67.70
15359;DHT22;7779;49.596;11.070;2024-01-15T15:33:43;2.10;67.60
15359;DHT22;7779;49.596;11.070;2024-01-15T15:36:10;2.10;67.80
15359;DHT22;7779;49.596;11.070;2024-01-15T15:38:35;2.10;67.90
15359;DHT22;7779;49.596;11.070;2024-01-15T15:41:01;2.00;67.90
15359;DHT22;7779;49.596;11.070;2024-01-15T15:43:28;2.00;67.80
15359;DHT22;7779;49.596;11.070;2024-01-15T15:45:55;2.00;68.00